Time;durP1;ratioP1;P1;durP2;ratioP2;P2;SDS_P1;SDS_P2;PMS_P1;PMS_P2;Temp;Humidity;BMP_temperature;BMP_pressure;BME280_temperature;BME280_humidity;BME280_pressure;Samples;Min_cycle;Max_cycle;Signal;HPM_P1;HPM_P2
2023/07/05 00:01:46;;;;;;;29.17;18.75;;;19.30;99.90;;;;;;5037206;28;20029;-59
2023/07/05 00:04:12;;;;;;;32.53;19.35;;;19.30;99.90;;;;;;5037296;28;20032;-59
2023/07/05 00:06:40;;;;;;;30.60;18.33;;;19.40;99.90;;;;;;5037294;28;20042;-59
2023/07/05 00:09:06;;;;;;;25.67;17.63;;;19.40;99.90;;;;;;5037291;28;20475;-59
2023/07/05 00:11:32;;;;;;;28.50;19.35;;;19.40;99.90;;;;;;5037208;28;20075;-58
2023/07/05 00:13:58;;;;;;;29.02;18.75;;;19.30;99.90;;;;;;5037178;28;20033;-58
2023/07/05 00:16:24;;;;;;;27.75;18.55;;;19.30;99.90;;;;;;5037351;28;20497;-58
2023/07/05 00:18:50;;;;;;;28.60;18.33;;;19.30;99.90;;;;;;5037124;28;20033;-58
2023/07/05 00:21:16;;;;;;;27.52;18.17;;;19.30;99.90;;;;;;5037253;28;20026;-59
2023/07/05 00:23:46;;;;;;;24.42;18.02;;;19.40;99.90;;;;;;5036922;28;20041;-58
2023/07/05 00:26:12;;;;;;;26.83;18.10;;;19.30;99.90;;;;;;5036662;28;20025;-58
2023/07/05 00:28:38;;;;;;;24.65;17.02;;;19.30;99.90;;;;;;5019254;28;20045;-58
2023/07/05 00:31:05;;;;;;;22.17;16.27;;;19.30;99.90;;;;;;5035373;28;20029;-59
2023/07/05 00:33:32;;;;;;;22.52;16.33;;;19.30;99.90;;;;;;5036845;28;20068;-58
2023/07/05 00:35:58;;;;;;;24.60;16.73;;;19.40;99.90;;;;;;5037221;28;20130;-59
2023/07/05 00:38:24;;;;;;;26.30;16.48;;;19.40;99.90;;;;;;5036792;28;20021;-58
2023/07/05 00:40:51;;;;;;;23.08;16.52;;;19.50;99.90;;;;;;5036786;28;20025;-59
2023/07/05 00:43:19;;;;;;;24.05;16.02;;;19.40;99.90;;;;;;5036665;28;20033;-58
2023/07/05 00:45:57;;;;;;;20.30;15.00;;;19.40;99.90;;;;;;5036587;28;20152;-58
2023/07/05 00:48:33;;;;;;;28.02;17.63;;;19.40;99.90;;;;;;5036539;28;20116;-59
2023/07/05 00:51:02;;;;;;;25.10;16.70;;;19.50;99.90;;;;;;5036564;28;20025;-58
2023/07/05 00:53:29;;;;;;;26.38;17.95;;;19.50;99.90;;;;;;5018977;28;20040;-59
2023/07/05 00:56:19;;;;;;;24.75;16.20;;;19.50;99.90;;;;;;5036339;28;20425;-59
2023/07/05 00:58:45;;;;;;;22.70;16.83;;;19.60;99.90;;;;;;5036437;28;20439;-59
2023/07/05 01:01:12;;;;;;;27.58;20.00;;;19.50;99.90;;;;;;5036259;28;20132;-58
2023/07/05 01:03:39;;;;;;;27.13;18.45;;;19.50;99.90;;;;;;5018307;28;20041;-58
2023/07/05 01:06:07;;;;;;;28.65;18.85;;;19.60;99.90;;;;;;5022477;28;20042;-59
2023/07/05 01:08:33;;;;;;;26.52;17.70;;;19.60;99.90;;;;;;5051318;28;20040;-59
2023/07/05 01:11:13;;;;;;;28.65;17.80;;;19.70;99.90;;;;;;5034937;28;20101;-59
2023/07/05 01:13:46;;;;;;;25.47;18.07;;;19.70;99.90;;;;;;5036238;28;20049;-59
2023/07/05 01:16:27;;;;;;;30.17;17.35;;;19.80;99.90;;;;;;5034750;28;20273;-59
2023/07/05 01:18:56;;;;;;;;;;;19.70;99.90;;;;;;5035150;28;20030;-59
2023/07/05 01:21:39;;;;;;;27.92;16.85;;;19.60;99.90;;;;;;5036075;28;19944;-59
2023/07/05 01:24:24;;;;;;;23.95;15.82;;;19.60;99.90;;;;;;5035915;28;20030;-59
2023/07/05 01:27:08;;;;;;;22.00;15.05;;;19.50;99.90;;;;;;5035921;28;20022;-59
2023/07/05 01:29:43;;;;;;;25.30;15.80;;;19.50;99.90;;;;;;5035906;28;20041;-58
2023/07/05 01:32:21;;;;;;;24.23;15.60;;;19.40;99.90;;;;;;5034596;28;20038;-59
2023/07/05 01:34:57;;;;;;;30.05;17.35;;;19.30;99.90;;;;;;5035812;28;20037;-58
2023/07/05 01:37:32;;;;;;;26.48;16.35;;;19.30;99.90;;;;;;5035730;28;20037;-59
2023/07/05 01:39:58;;;;;;;26.13;16.90;;;19.40;99.90;;;;;;5034404;28;20033;-59
2023/07/05 01:42:28;;;;;;;29.63;17.63;;;19.40;99.90;;;;;;5034437;28;20026;-59
2023/07/05 01:44:55;;;;;;;28.42;17.85;;;19.40;99.90;;;;;;5034722;28;20025;-59
2023/07/05 01:47:36;;;;;;;29.60;18.13;;;19.40;99.90;;;;;;5050975;28;20029;-59
2023/07/05 01:50:08;;;;;;;;;;;19.40;99.90;;;;;;5035796;28;20032;-59
2023/07/05 01:52:59;;;;;;;31.80;19.85;;;19.40;99.90;;;;;;5034100;28;20050;-59
2023/07/05 01:55:33;;;;;;;36.20;20.35;;;19.40;99.90;;;;;;5034300;28;20478;-59
2023/07/05 01:58:11;;;;;;;33.35;20.15;;;19.40;99.90;;;;;;5033981;28;20025;-59
2023/07/05 02:00:39;;;;;;;38.60;20.70;;;19.50;99.90;;;;;;5034017;28;20036;-59
2023/07/05 02:03:09;;;;;;;40.47;23.60;;;19.50;99.90;;;;;;5050558;28;20032;-59
2023/07/05 02:05:37;;;;;;;;;;;19.50;99.90;;;;;;5050910;28;20211;-59
2023/07/05 02:08:04;;;;;;;43.10;23.30;;;19.50;99.90;;;;;;5035166;28;19913;-59
2023/07/05 02:10:32;;;;;;;40.97;23.73;;;19.50;99.90;;;;;;5050287;28;20032;-59
2023/07/05 02:13:00;;;;;;;43.78;26.65;;;19.50;99.90;;;;;;5034997;28;20541;-59
2023/07/05 02:15:26;;;;;;;44.17;23.10;;;19.50;99.90;;;;;;5033818;28;20525;-59
2023/07/05 02:17:52;;;;;;;41.40;25.13;;;19.60;99.90;;;;;;5033729;28;20033;-59
2023/07/05 02:20:19;;;;;;;39.17;23.95;;;19.60;99.90;;;;;;5033490;28;20509;-59
2023/07/05 02:22:45;;;;;;;43.13;24.92;;;19.60;99.90;;;;;;5033756;28;20030;-59
2023/07/05 02:25:11;;;;;;;41.70;23.85;;;19.70;99.90;;;;;;5034924;28;20025;-59
2023/07/05 02:27:37;;;;;;;44.80;23.77;;;19.60;99.90;;;;;;5034728;28;20064;-59
2023/07/05 02:30:05;;;;;;;36.42;22.45;;;19.60;99.90;;;;;;5034986;28;20390;-59
2023/07/05 02:32:30;;;;;;;52.65;29.38;;;19.70;99.90;;;;;;5033510;28;20087;-59
2023/07/05 02:35:01;;;;;;;57.30;31.48;;;19.70;99.90;;;;;;5033352;28;20038;-59
2023/07/05 02:37:27;;;;;;;55.08;30.15;;;19.70;99.90;;;;;;5034848;28;20103;-59
2023/07/05 02:39:54;;;;;;;41.90;25.92;;;19.80;99.90;;;;;;5033338;28;20068;-59
2023/07/05 02:42:20;;;;;;;55.75;30.60;;;19.70;99.90;;;;;;5033332;28;20044;-59
2023/07/05 02:44:49;;;;;;;58.55;29.80;;;19.70;99.90;;;;;;5034787;28;20026;-59
2023/07/05 02:47:17;;;;;;;54.08;28.38;;;19.70;99.90;;;;;;5034627;28;20112;-59
2023/07/05 02:49:43;;;;;;;48.70;27.25;;;19.70;99.90;;;;;;5049671;28;20033;-59
2023/07/05 02:52:09;;;;;;;50.20;27.92;;;19.80;99.90;;;;;;5034567;28;20029;-59
2023/07/05 02:54:36;;;;;;;51.88;29.05;;;19.80;99.90;;;;;;5033053;28;20036;-59
2023/07/05 02:57:03;;;;;;;61.22;32.25;;;19.80;99.90;;;;;;5034390;28;20561;-59
2023/07/05 02:59:29;;;;;;;59.42;32.60;;;19.70;99.90;;;;;;5034204;28;20037;-59
2023/07/05 03:01:56;;;;;;;65.35;33.33;;;19.70;99.90;;;;;;5049240;28;20387;-59
2023/07/05 03:04:22;;;;;;;55.45;29.13;;;19.70;99.90;;;;;;5033033;28;20036;-59
2023/07/05 03:06:48;;;;;;;52.90;28.05;;;19.80;99.90;;;;;;5034201;28;20049;-59
2023/07/05 03:09:15;;;;;;;45.97;26.25;;;19.80;99.90;;;;;;5034130;28;20036;-59
2023/07/05 03:11:41;;;;;;;45.55;26.75;;;19.80;99.90;;;;;;5034096;28;20025;-59
2023/07/05 03:14:07;;;;;;;53.83;26.83;;;19.90;99.90;;;;;;5032981;28;20036;-59
2023/07/05 03:16:33;;;;;;;47.88;25.13;;;19.90;99.90;;;;;;5016490;28;20045;-59
2023/07/05 03:18:59;;;;;;;35.83;22.30;;;19.90;99.90;;;;;;5034226;28;20035;-59
2023/07/05 03:21:25;;;;;;;35.72;20.40;;;19.90;99.90;;;;;;5034170;28;20379;-59
2023/07/05 03:23:51;;;;;;;35.42;20.00;;;19.90;99.90;;;;;;5016143;28;20137;-59
2023/07/05 03:26:17;;;;;;;38.70;20.33;;;19.80;99.90;;;;;;5034368;28;20053;-59
2023/07/05 03:28:43;;;;;;;33.00;19.30;;;19.80;99.90;;;;;;5016357;28;20482;-59
2023/07/05 03:31:12;;;;;;;33.08;18.70;;;19.80;99.90;;;;;;5034044;28;20021;-59
2023/07/05 03:33:38;;;;;;;56.58;24.25;;;19.80;99.90;;;;;;5016502;28;20025;-59
2023/07/05 03:36:17;;;;;;;62.28;23.88;;;19.80;99.90;;;;;;5033904;28;20022;-59
2023/07/05 03:38:44;;;;;;;55.72;25.08;;;19.80;99.90;;;;;;5016144;28;20392;-59
2023/07/05 03:41:17;;;;;;;57.08;25.50;;;19.90;99.90;;;;;;5033921;28;20490;-59
2023/07/05 03:43:47;;;;;;;85.85;32.78;;;19.90;99.90;;;;;;5033911;28;20029;-59
2023/07/05 03:46:14;;;;;;;94.65;34.85;;;19.80;99.90;;;;;;5033685;28;20115;-59
2023/07/05 03:48:42;;;;;;;86.22;33.70;;;19.80;99.90;;;;;;5033823;28;20026;-59
2023/07/05 03:51:17;;;;;;;82.45;33.85;;;19.80;99.90;;;;;;5033955;28;20455;-59
2023/07/05 03:53:47;;;;;;;81.40;32.92;;;19.80;99.90;;;;;;5033814;28;20057;-59
2023/07/05 03:56:13;;;;;;;77.75;30.33;;;19.80;99.90;;;;;;5033880;28;20026;-59
2023/07/05 03:58:39;;;;;;;91.07;33.13;;;19.90;99.90;;;;;;5033787;28;20084;-59
2023/07/05 04:01:15;;;;;;;79.15;31.08;;;20.00;99.90;;;;;;5033727;28;20022;-59
2023/07/05 04:03:42;;;;;;;79.13;30.88;;;20.10;99.90;;;;;;5033928;28;20025;-59
2023/07/05 04:06:08;;;;;;;75.20;32.10;;;20.10;99.90;;;;;;5033752;28;20049;-59
2023/07/05 04:08:34;;;;;;;76.07;30.25;;;20.30;99.90;;;;;;5037346;28;20030;-59
2023/07/05 04:11:00;;;;;;;73.88;30.52;;;20.20;99.90;;;;;;5037171;28;20068;-59
2023/07/05 04:13:26;;;;;;;74.43;28.90;;;20.20;99.90;;;;;;5037266;28;20030;-59
2023/07/05 04:16:05;;;;;;;72.25;31.33;;;20.20;99.90;;;;;;5037302;28;20091;-59
2023/07/05 04:18:32;;;;;;;79.10;31.77;;;20.20;99.90;;;;;;5037261;28;20026;-59
2023/07/05 04:20:59;;;;;;;78.50;35.10;;;20.30;99.90;;;;;;5036890;28;20041;-59
2023/07/05 04:23:25;;;;;;;75.10;33.95;;;20.30;99.90;;;;;;5037223;28;20026;-59
2023/07/05 04:26:06;;;;;;;82.03;35.05;;;20.30;99.90;;;;;;5037208;28;20025;-59
2023/07/05 04:28:33;;;;;;;82.90;35.53;;;20.20;99.90;;;;;;5036804;28;20025;-59
2023/07/05 04:30:59;;;;;;;87.68;36.03;;;20.10;99.90;;;;;;5037102;28;20033;-59
2023/07/05 04:33:25;;;;;;;87.35;36.03;;;20.10;99.90;;;;;;5036846;28;20111;-59
2023/07/05 04:35:57;;;;;;;82.82;36.88;;;20.10;99.90;;;;;;5036861;28;20040;-59
2023/07/05 04:38:24;;;;;;;84.40;36.28;;;20.20;99.90;;;;;;5036808;28;20030;-59
2023/07/05 04:40:50;;;;;;;89.50;37.33;;;20.30;99.90;;;;;;5036821;28;20525;-59
2023/07/05 04:43:16;;;;;;;83.28;36.72;;;20.20;99.90;;;;;;5036719;28;20051;-59
2023/07/05 04:45:52;;;;;;;91.45;39.13;;;20.10;99.90;;;;;;5036673;28;20063;-59
2023/07/05 04:48:18;;;;;;;89.25;37.95;;;20.10;99.90;;;;;;5036618;28;20067;-59
2023/07/05 04:50:47;;;;;;;91.38;36.67;;;20.10;99.90;;;;;;5036433;28;20112;-59
2023/07/05 04:53:13;;;;;;;78.10;34.72;;;20.20;99.90;;;;;;5036515;28;20072;-59
2023/07/05 04:55:53;;;;;;;91.95;34.55;;;20.30;99.90;;;;;;5036601;28;20033;-59
2023/07/05 04:58:20;;;;;;;79.55;33.67;;;20.20;99.90;;;;;;5036464;28;20021;-59
2023/07/05 05:00:46;;;;;;;89.22;36.90;;;20.20;99.90;;;;;;5036487;28;20040;-59
2023/07/05 05:03:13;;;;;;;83.72;38.00;;;20.20;99.90;;;;;;5036252;28;20092;-59
2023/07/05 05:05:41;;;;;;;82.13;33.80;;;20.20;99.90;;;;;;5036172;28;20087;-59
2023/07/05 05:08:07;;;;;;;83.43;35.95;;;20.20;99.90;;;;;;5036256;28;20044;-59
2023/07/05 05:10:36;;;;;;;81.13;36.20;;;20.20;99.90;;;;;;5036066;28;20418;-59
2023/07/05 05:13:03;;;;;;;78.97;35.20;;;20.20;99.90;;;;;;5036204;28;20502;-59
2023/07/05 05:15:36;;;;;;;80.47;35.10;;;20.20;99.90;;;;;;5036011;28;20041;-59
2023/07/05 05:18:02;;;;;;;75.28;34.03;;;20.30;99.90;;;;;;5036019;28;20036;-59
2023/07/05 05:20:30;;;;;;;84.03;35.67;;;20.40;99.90;;;;;;5035719;28;20483;-59
2023/07/05 05:22:58;;;;;;;82.90;34.80;;;20.40;99.90;;;;;;5033931;28;20053;-59
2023/07/05 05:25:25;;;;;;;78.90;32.03;;;20.40;99.90;;;;;;5029857;28;20108;-59
2023/07/05 05:27:51;;;;;;;85.15;34.75;;;20.50;99.90;;;;;;5016778;28;20026;-59
2023/07/05 05:30:20;;;;;;;77.45;34.40;;;20.40;99.90;;;;;;5017286;28;20032;-59
2023/07/05 05:32:46;;;;;;;78.55;37.45;;;20.50;99.90;;;;;;5055305;28;20061;-59
2023/07/05 05:35:13;;;;;;;87.20;36.95;;;20.60;99.90;;;;;;5025603;28;20379;-59
2023/07/05 05:37:43;;;;;;;83.75;38.42;;;20.70;99.90;;;;;;5024302;28;20530;-59
2023/07/05 05:40:10;;;;;;;71.03;33.65;;;20.80;99.90;;;;;;5022174;28;20029;-59
2023/07/05 05:42:37;;;;;;;77.50;36.50;;;20.90;99.90;;;;;;5021684;28;20037;-59
2023/07/05 05:45:03;;;;;;;70.70;37.20;;;21.00;99.90;;;;;;5034621;28;20097;-59
2023/07/05 05:47:29;;;;;;;73.05;38.58;;;21.00;99.90;;;;;;5038451;28;20081;-59
2023/07/05 05:49:56;;;;;;;77.55;39.45;;;21.20;99.90;;;;;;5036239;28;20108;-59
2023/07/05 05:52:24;;;;;;;74.00;39.25;;;21.30;99.90;;;;;;5023255;28;20026;-59
2023/07/05 05:54:53;;;;;;;63.25;35.97;;;21.20;99.90;;;;;;5023036;28;20029;-59
2023/07/05 05:57:19;;;;;;;75.45;38.47;;;21.20;99.90;;;;;;5024475;28;20026;-59
2023/07/05 05:59:45;;;;;;;73.25;37.53;;;21.40;99.90;;;;;;5024473;28;20029;-59
2023/07/05 06:02:11;;;;;;;72.43;40.10;;;21.30;99.90;;;;;;5013206;28;20030;-59
2023/07/05 06:04:37;;;;;;;71.03;39.85;;;21.40;99.90;;;;;;5026076;28;20037;-59
2023/07/05 06:07:03;;;;;;;70.43;38.13;;;21.60;99.90;;;;;;5016782;28;20053;-59
2023/07/05 06:09:29;;;;;;;71.38;37.70;;;21.80;99.90;;;;;;5025648;28;20379;-59
2023/07/05 06:11:55;;;;;;;62.88;36.20;;;21.90;99.90;;;;;;5015614;28;20590;-59
2023/07/05 06:14:21;;;;;;;70.15;37.38;;;22.10;99.90;;;;;;5016988;28;20088;-59
2023/07/05 06:16:47;;;;;;;66.57;37.50;;;22.20;99.90;;;;;;5014450;28;20530;-59
2023/07/05 06:19:13;;;;;;;61.05;34.65;;;22.40;99.90;;;;;;5010241;28;20337;-59
2023/07/05 06:21:39;;;;;;;61.97;34.60;;;22.60;99.90;;;;;;5025100;28;20022;-59
2023/07/05 06:24:05;;;;;;;68.80;35.63;;;22.60;99.90;;;;;;5025672;28;20022;-59
2023/07/05 06:26:34;;;;;;;65.47;36.05;;;22.60;99.90;;;;;;5023061;28;20563;-59
2023/07/05 06:29:00;;;;;;;65.15;35.53;;;22.70;99.90;;;;;;5021791;28;20113;-59
2023/07/05 06:31:32;;;;;;;57.50;33.38;;;22.90;99.90;;;;;;5024272;28;20446;-59
2023/07/05 06:33:59;;;;;;;60.65;35.47;;;23.10;99.90;;;;;;5020069;28;20530;-59
2023/07/05 06:36:26;;;;;;;58.25;33.40;;;23.10;99.90;;;;;;5014678;28;20034;-59
2023/07/05 06:38:52;;;;;;;60.13;34.75;;;23.20;99.90;;;;;;5015271;28;20033;-59
2023/07/05 06:41:18;;;;;;;59.28;34.85;;;23.40;99.90;;;;;;5026614;28;20444;-59
2023/07/05 06:43:44;;;;;;;56.38;33.22;;;23.30;99.90;;;;;;5016890;28;20049;-59
2023/07/05 06:46:10;;;;;;;59.33;34.72;;;23.40;99.90;;;;;;5034449;28;20033;-59
2023/07/05 06:48:36;;;;;;;59.33;33.45;;;23.60;99.90;;;;;;5054724;28;20048;-59
2023/07/05 06:51:02;;;;;;;60.95;35.50;;;23.50;99.90;;;;;;5054822;28;20040;-59
2023/07/05 06:53:28;;;;;;;57.50;33.50;;;23.90;99.90;;;;;;5055100;28;20032;-59
2023/07/05 06:55:56;;;;;;;55.40;32.75;;;24.10;99.90;;;;;;5048567;28;20038;-59
2023/07/05 06:58:22;;;;;;;60.05;34.22;;;24.40;99.90;;;;;;5034973;28;20033;-59
2023/07/05 07:00:52;;;;;;;55.13;32.92;;;24.60;99.90;;;;;;5034562;28;20025;-59
2023/07/05 07:03:18;;;;;;;56.40;32.15;;;24.60;99.90;;;;;;5024995;28;20042;-59
2023/07/05 07:05:54;;;;;;;61.47;33.80;;;24.80;99.90;;;;;;5014505;28;20037;-59
2023/07/05 07:08:21;;;;;;;68.32;35.33;;;24.90;99.90;;;;;;5015181;28;20092;-59
2023/07/05 07:10:48;;;;;;;54.40;32.80;;;25.00;99.90;;;;;;5014442;28;20065;-59
2023/07/05 07:13:16;;;;;;;53.90;31.40;;;25.30;99.90;;;;;;5017465;28;20033;-59
2023/07/05 07:15:42;;;;;;;52.60;32.25;;;25.30;99.90;;;;;;5023380;28;20423;-59
2023/07/05 07:18:08;;;;;;;47.25;30.25;;;25.50;99.90;;;;;;5026467;28;20029;-59
2023/07/05 07:20:34;;;;;;;52.92;31.05;;;25.80;99.90;;;;;;5023961;28;20040;-59
2023/07/05 07:23:03;;;;;;;50.35;29.70;;;25.90;99.90;;;;;;5019069;28;20387;-59
2023/07/05 07:25:29;;;;;;;41.90;28.52;;;26.10;99.90;;;;;;5019718;28;20057;-59
2023/07/05 07:27:55;;;;;;;44.42;28.60;;;26.30;99.90;;;;;;5023685;28;20033;-59
2023/07/05 07:30:20;;;;;;;44.13;28.65;;;26.20;99.90;;;;;;5023578;28;20036;-59
2023/07/05 07:32:47;;;;;;;35.65;26.50;;;26.30;99.90;;;;;;5025043;28;20033;-59
2023/07/05 07:35:17;;;;;;;37.67;25.95;;;26.50;99.90;;;;;;5023880;28;20087;-59
2023/07/05 07:37:44;;;;;;;36.92;25.80;;;26.80;99.90;;;;;;5023016;28;20168;-59
2023/07/05 07:40:11;;;;;;;35.95;27.08;;;27.10;98.30;;;;;;5025371;28;20033;-59
2023/07/05 07:42:37;;;;;;;38.35;27.23;;;27.30;97.30;;;;;;5026337;28;20074;-59
2023/07/05 07:45:03;;;;;;;39.65;26.52;;;27.40;97.50;;;;;;5023007;28;20820;-59
2023/07/05 07:47:29;;;;;;;38.17;27.40;;;27.60;95.10;;;;;;5028062;28;20180;-59
2023/07/05 07:49:55;;;;;;;38.83;27.85;;;27.60;95.90;;;;;;5028026;28;20056;-59
2023/07/05 07:52:21;;;;;;;42.17;27.08;;;28.00;95.70;;;;;;5027564;28;20028;-59
2023/07/05 07:54:47;;;;;;;40.28;27.90;;;27.60;92.40;;;;;;5028560;28;20080;-58
2023/07/05 07:57:14;;;;;;;46.22;30.38;;;27.40;92.20;;;;;;5033141;28;20033;-59
2023/07/05 07:59:41;;;;;;;41.17;28.70;;;27.40;94.10;;;;;;5017290;28;20091;-58
2023/07/05 08:02:12;;;;;;;38.17;27.20;;;27.50;92.20;;;;;;5017555;28;20022;-59
2023/07/05 08:04:45;;;;;;;;;;;27.30;92.10;;;;;;5028670;28;20026;-59
2023/07/05 08:07:11;;;;;;;41.45;26.73;;;26.90;92.40;;;;;;5028607;28;20382;-59
2023/07/05 08:09:37;;;;;;;36.15;26.30;;;26.90;94.50;;;;;;5036896;28;20043;-59
2023/07/05 08:12:04;;;;;;;42.17;27.58;;;27.60;93.40;;;;;;5021946;28;20033;-59
2023/07/05 08:14:30;;;;;;;41.38;28.73;;;28.30;94.60;;;;;;5016992;28;20034;-59
2023/07/05 08:16:55;;;;;;;36.47;24.33;;;29.00;91.10;;;;;;5016273;28;20383;-59
2023/07/05 08:19:21;;;;;;;37.03;25.60;;;28.40;86.90;;;;;;5023360;28;20030;-59
2023/07/05 08:21:47;;;;;;;39.10;24.85;;;28.10;88.90;;;;;;5026531;28;20075;-59
2023/07/05 08:24:14;;;;;;;38.20;23.98;;;27.10;90.90;;;;;;4999133;28;20037;-59
2023/07/05 08:26:41;;;;;;;33.28;23.90;;;27.70;92.20;;;;;;5016396;28;20029;-59
2023/07/05 08:29:08;;;;;;;27.52;22.15;;;28.50;88.80;;;;;;5017624;28;20045;-59
2023/07/05 08:31:34;;;;;;;30.60;21.80;;;28.30;85.10;;;;;;5027931;28;20116;-59
2023/07/05 08:34:01;;;;;;;34.58;22.83;;;28.80;84.10;;;;;;5016684;28;20053;-59
2023/07/05 08:36:31;;;;;;;37.53;23.77;;;28.70;83.30;;;;;;5017751;28;20041;-59
2023/07/05 08:38:59;;;;;;;30.30;22.35;;;28.80;84.20;;;;;;5017592;28;20022;-59
2023/07/05 08:41:41;;;;;;;30.55;22.50;;;28.40;83.60;;;;;;5017013;28;20076;-59
2023/07/05 08:44:19;;;;;;;30.15;23.17;;;29.00;82.70;;;;;;5016846;28;20479;-59
2023/07/05 08:46:48;;;;;;;33.85;23.25;;;29.10;81.50;;;;;;5039920;28;20075;-59
2023/07/05 08:49:23;;;;;;;37.65;24.38;;;29.80;83.90;;;;;;5056891;28;20056;-59
2023/07/05 08:59:45;;;;;;;33.28;24.17;;;29.10;78.80;;;;;;5031957;28;20116;-59
2023/07/05 09:02:14;;;;;;;32.75;21.58;;;29.30;77.00;;;;;;5016429;28;20492;-59
2023/07/05 09:04:40;;;;;;;38.72;23.92;;;28.80;76.70;;;;;;5014488;28;20080;-59
2023/07/05 09:07:24;;;;;;;35.35;24.00;;;28.10;80.30;;;;;;5016335;28;20046;-59
2023/07/05 09:09:56;;;;;;;31.55;20.83;;;28.40;81.30;;;;;;5016829;28;20065;-59
2023/07/05 09:12:30;;;;;;;31.45;20.55;;;28.50;80.60;;;;;;5015164;28;20065;-59
2023/07/05 09:15:14;;;;;;;28.33;19.92;;;28.70;80.10;;;;;;5027148;28;20035;-59
2023/07/05 09:18:15;;;;;;;25.92;19.63;;;28.30;83.50;;;;;;5038773;28;20063;-59
2023/07/05 09:21:01;;;;;;;31.33;20.27;;;28.80;83.10;;;;;;5029587;28;20037;-59
2023/07/05 09:23:39;;;;;;;30.40;20.13;;;28.60;79.80;;;;;;5015917;28;20033;-59
2023/07/05 09:26:33;;;;;;;36.05;22.42;;;28.40;80.10;;;;;;5015337;28;20022;-59
2023/07/05 09:29:18;;;;;;;30.00;21.02;;;28.60;83.70;;;;;;5013445;28;20026;-59
2023/07/05 09:31:44;;;;;;;31.40;20.60;;;28.60;83.60;;;;;;5015491;28;20541;-59
2023/07/05 09:34:31;;;;;;;42.50;22.80;;;28.80;81.70;;;;;;5021507;28;20029;-59
2023/07/05 09:36:59;;;;;;;32.40;21.63;;;29.10;77.60;;;;;;5021309;28;20188;-59
2023/07/05 09:39:46;;;;;;;34.10;23.13;;;29.00;76.70;;;;;;5046851;28;20394;-59
2023/07/05 09:42:21;;;;;;;34.10;23.60;;;29.10;78.10;;;;;;5048651;28;20030;-59
2023/07/05 09:44:47;;;;;;;26.48;21.48;;;29.40;79.50;;;;;;5035177;28;20041;-59
2023/07/05 09:47:13;;;;;;;28.52;21.83;;;29.00;78.20;;;;;;5043951;28;20482;-59
2023/07/05 09:49:39;;;;;;;27.30;21.45;;;28.80;79.00;;;;;;5032220;28;20054;-59
2023/07/05 09:52:13;;;;;;;27.98;20.98;;;28.40;80.20;;;;;;5025220;28;20053;-59
2023/07/05 09:54:40;;;;;;;27.45;20.30;;;28.80;82.10;;;;;;5015564;28;20034;-59
2023/07/05 09:57:09;;;;;;;32.13;21.55;;;29.50;82.80;;;;;;5015269;28;20036;-59
2023/07/05 09:59:37;;;;;;;30.20;21.85;;;30.30;77.20;;;;;;5015344;28;20104;-59
2023/07/05 10:02:12;;;;;;;35.40;22.63;;;29.90;75.10;;;;;;5015170;28;20040;-59
2023/07/05 10:04:58;;;;;;;31.95;21.17;;;28.90;74.20;;;;;;5014215;28;20026;-59
2023/07/05 10:07:29;;;;;;;34.22;23.52;;;28.20;77.20;;;;;;5015015;28;20057;-59
2023/07/05 10:10:08;;;;;;;28.23;21.60;;;28.50;78.30;;;;;;5014151;28;20030;-58
2023/07/05 10:12:37;;;;;;;27.27;20.30;;;28.20;76.10;;;;;;5020309;28;20040;-59
2023/07/05 10:15:20;;;;;;;25.33;20.42;;;29.00;72.80;;;;;;5045711;28;20037;-59
2023/07/05 10:17:46;;;;;;;29.98;21.02;;;30.10;75.40;;;;;;5035016;28;20038;-59
2023/07/05 10:20:28;;;;;;;24.92;20.10;;;31.00;71.10;;;;;;5015700;28;20368;-59
2023/07/05 10:23:15;;;;;;;23.90;18.83;;;31.10;72.00;;;;;;5015912;28;20026;-59
2023/07/05 10:25:42;;;;;;;23.08;19.00;;;30.50;64.80;;;;;;5014431;28;20030;-59
2023/07/05 10:28:14;;;;;;;27.48;20.05;;;29.90;72.20;;;;;;5015735;28;20026;-59
2023/07/05 10:30:52;;;;;;;28.50;19.83;;;30.00;70.50;;;;;;5014611;28;20084;-59
2023/07/05 10:33:25;;;;;;;25.38;19.88;;;30.20;70.30;;;;;;5014811;28;20041;-59
2023/07/05 10:36:12;;;;;;;25.95;20.33;;;30.30;72.00;;;;;;5015827;28;20069;-59
2023/07/05 10:38:46;;;;;;;25.50;20.38;;;30.40;71.10;;;;;;5015128;28;20127;-59
2023/07/05 10:41:25;;;;;;;26.08;19.98;;;30.50;73.90;;;;;;5014013;28;20030;-59
2023/07/05 10:43:59;;;;;;;26.67;19.70;;;30.60;70.10;;;;;;5014870;28;20026;-59
2023/07/05 10:46:26;;;;;;;25.67;19.88;;;31.10;70.30;;;;;;5027317;28;20104;-59
2023/07/05 10:48:53;;;;;;;36.00;21.50;;;31.20;68.60;;;;;;5025247;28;20029;-59
2023/07/05 10:51:23;;;;;;;28.50;19.83;;;30.90;66.00;;;;;;5015255;28;20034;-58
2023/07/05 10:53:55;;;;;;;;;;;31.00;65.50;;;;;;5014484;28;20515;-59
2023/07/05 10:56:26;;;;;;;26.02;19.77;;;31.30;70.50;;;;;;5014357;28;20000;-59
2023/07/05 10:59:25;;;;;;;26.23;18.70;;;31.90;68.30;;;;;;5014214;28;20026;-59
2023/07/05 11:02:01;;;;;;;28.13;19.43;;;32.20;63.60;;;;;;5014211;28;20069;-59
2023/07/05 11:04:31;;;;;;;29.05;19.60;;;32.00;60.20;;;;;;5011419;28;20463;-59
2023/07/05 11:07:06;;;;;;;27.35;20.08;;;31.70;61.80;;;;;;5013346;28;20038;-59
2023/07/05 11:09:36;;;;;;;26.42;20.27;;;31.10;66.60;;;;;;5014141;28;20033;-59
2023/07/05 11:12:05;;;;;;;;;;;30.70;71.40;;;;;;5013841;28;20034;-59
2023/07/05 11:14:32;;;;;;;26.83;19.10;;;30.60;76.10;;;;;;5026131;28;20156;-59
2023/07/05 11:16:59;;;;;;;28.88;19.05;;;30.60;70.30;;;;;;5036531;28;20481;-59
2023/07/05 11:19:28;;;;;;;25.17;16.67;;;30.40;73.60;;;;;;5037228;28;20029;-59
2023/07/05 11:21:54;;;;;;;25.02;17.67;;;30.10;72.70;;;;;;5038106;28;20463;-59
2023/07/05 11:24:38;;;;;;;26.15;16.88;;;29.80;80.80;;;;;;5021166;28;20037;-59
2023/07/05 11:27:27;;;;;;;28.58;18.67;;;29.60;84.00;;;;;;5020703;28;20471;-59
2023/07/05 11:29:54;;;;;;;23.08;17.45;;;29.50;81.10;;;;;;5028999;28;20056;-59
2023/07/05 11:32:40;;;;;;;22.63;16.63;;;29.50;82.20;;;;;;5018414;28;20064;-58
2023/07/05 11:35:06;;;;;;;23.73;18.15;;;29.40;80.40;;;;;;5018035;28;20034;-58
2023/07/05 11:37:41;;;;;;;37.30;18.48;;;29.10;82.10;;;;;;5017915;28;20545;-58
2023/07/05 11:40:45;;;;;;;25.20;17.95;;;28.80;87.90;;;;;;5018059;28;20061;-58
2023/07/05 11:43:25;;;;;;;24.38;18.70;;;28.70;88.30;;;;;;5016872;28;20228;-58
2023/07/05 11:45:51;;;;;;;;;;;28.80;79.50;;;;;;5034280;28;20051;-58
2023/07/05 11:48:41;;;;;;;25.42;17.77;;;29.10;78.20;;;;;;5040157;28;20359;-58
2023/07/05 11:51:24;;;;;;;;;;;29.30;78.50;;;;;;5036525;28;20026;-58
2023/07/05 11:53:52;;;;;;;27.25;19.58;;;29.40;80.50;;;;;;5037465;28;19909;-58
2023/07/05 11:56:20;;;;;;;35.70;19.88;;;29.40;80.10;;;;;;5025962;28;20460;-58
2023/07/05 11:58:47;;;;;;;52.90;20.35;;;29.50;80.10;;;;;;5023007;28;20045;-58
2023/07/05 12:01:27;;;;;;;23.38;17.48;;;30.00;83.50;;;;;;5028098;28;20033;-58
2023/07/05 12:03:59;;;;;;;27.08;16.58;;;30.70;74.70;;;;;;5036980;28;20107;-58
2023/07/05 12:06:34;;;;;;;19.77;15.27;;;31.30;67.60;;;;;;5037392;28;20048;-58
2023/07/05 12:09:13;;;;;;;21.95;16.13;;;31.90;58.50;;;;;;5020133;28;20088;-58
2023/07/05 12:11:54;;;;;;;19.42;15.95;;;32.30;57.60;;;;;;5018312;28;20038;-58
2023/07/05 12:14:20;;;;;;;25.25;15.27;;;32.30;55.60;;;;;;5028760;28;20029;-58
2023/07/05 12:16:46;;;;;;;23.42;16.80;;;32.00;56.00;;;;;;5018162;28;20349;-58
2023/07/05 12:19:30;;;;;;;21.92;15.93;;;32.60;55.30;;;;;;5020299;28;20018;-59
2023/07/05 12:22:08;;;;;;;21.20;15.45;;;33.40;56.10;;;;;;5026072;28;20026;-58
2023/07/05 12:24:56;;;;;;;23.58;15.73;;;33.70;54.40;;;;;;5017814;28;20033;-58
2023/07/05 12:27:30;;;;;;;18.50;15.60;;;34.10;50.20;;;;;;5035366;28;20041;-58
2023/07/05 12:29:59;;;;;;;24.73;17.20;;;34.40;52.10;;;;;;5057072;28;20029;-58
2023/07/05 12:32:29;;;;;;;17.98;15.02;;;34.40;51.30;;;;;;5056817;28;20033;-58
2023/07/05 12:35:13;;;;;;;25.10;17.42;;;34.20;48.60;;;;;;5055970;28;20025;-58
2023/07/05 12:37:39;;;;;;;20.73;15.88;;;33.00;51.20;;;;;;5047072;28;20030;-58
2023/07/05 12:40:30;;;;;;;20.60;15.98;;;33.40;51.10;;;;;;5036585;28;20387;-58
2023/07/05 12:43:05;;;;;;;23.38;16.73;;;33.60;49.00;;;;;;5036800;28;20026;-58
2023/07/05 12:45:33;;;;;;;24.23;17.80;;;34.10;50.80;;;;;;5036404;28;20036;-58
2023/07/05 12:48:18;;;;;;;20.88;15.75;;;34.10;50.20;;;;;;5050962;28;20029;-58
2023/07/05 12:50:45;;;;;;;16.77;14.60;;;34.30;50.20;;;;;;5035235;28;20029;-58
2023/07/05 12:53:22;;;;;;;17.55;14.77;;;34.50;47.80;;;;;;5036276;28;20116;-58
2023/07/05 12:56:05;;;;;;;20.40;16.80;;;34.70;51.60;;;;;;5036117;28;20116;-59